createdAt,value
2023-09-06T00:01:18.672Z,101540.31
2023-09-06T00:03:45.304Z,101540.97
2023-09-06T00:06:12.206Z,101543.91
2023-09-06T00:08:38.757Z,101546.47
2023-09-06T00:11:07.943Z,101549.03
2023-09-06T00:13:35.643Z,101541.41
2023-09-06T00:16:03.354Z,101537.81
2023-09-06T00:18:30.364Z,101538.22
2023-09-06T00:20:58.897Z,101531.44
2023-09-06T00:23:26.635Z,101534.00
2023-09-06T00:25:54.849Z,101533.59
2023-09-06T00:28:25.171Z,101531.63
2023-09-06T00:30:53.554Z,101532.91
2023-09-06T00:33:20.147Z,101534.63
2023-09-06T00:35:46.686Z,101527.84
2023-09-06T00:38:13.104Z,101527.66
2023-09-06T00:40:41.144Z,101528.94
2023-09-06T00:43:09.272Z,101525.09
2023-09-06T00:45:43.286Z,101526.63
2023-09-06T00:48:11.450Z,101526.44
2023-09-06T00:50:40.266Z,101524.72
2023-09-06T00:53:08.305Z,101527.09
2023-09-06T00:55:35.401Z,101532.78
2023-09-06T00:58:02.270Z,101531.09
2023-09-06T01:00:29.434Z,101529.44
2023-09-06T01:02:56.478Z,101532.59
2023-09-06T01:05:25.740Z,101526.91
2023-09-06T01:07:56.454Z,101531.75
2023-09-06T01:10:22.977Z,101526.06
2023-09-06T01:12:49.881Z,101530.53
2023-09-06T01:15:16.760Z,101529.06
2023-09-06T01:17:44.693Z,101529.91
2023-09-06T01:20:30.525Z,101534.53
2023-09-06T01:22:59.964Z,101537.09
2023-09-06T01:25:26.545Z,101539.00
2023-09-06T01:27:53.205Z,101534.59
2023-09-06T01:30:19.730Z,101535.63
2023-09-06T01:32:46.384Z,101538.81
2023-09-06T01:35:12.982Z,101531.44
2023-09-06T01:37:39.505Z,101533.97
2023-09-06T01:40:33.101Z,101541.97
2023-09-06T01:42:59.941Z,101534.00
2023-09-06T01:45:28.501Z,101540.06
2023-09-06T01:47:56.138Z,101536.06
2023-09-06T01:50:22.714Z,101539.28
2023-09-06T01:52:49.421Z,101540.97
2023-09-06T01:55:16.121Z,101533.56
2023-09-06T01:57:42.666Z,101544.78
2023-09-06T02:00:24.319Z,101539.28
2023-09-06T02:02:51.531Z,101541.38
2023-09-06T02:05:18.090Z,101544.16
2023-09-06T02:07:48.173Z,101540.56
2023-09-06T02:10:14.855Z,101551.56
2023-09-06T02:12:41.421Z,101543.28
2023-09-06T02:15:09.285Z,101546.66
2023-09-06T02:17:36.442Z,101551.75
2023-09-06T02:20:14.608Z,101548.56
2023-09-06T02:22:42.019Z,101548.56
2023-09-06T02:25:09.998Z,101553.63
2023-09-06T02:27:37.364Z,101558.09
2023-09-06T02:30:06.344Z,101559.97
2023-09-06T02:32:33.626Z,101565.25
2023-09-06T02:35:00.276Z,101563.16
2023-09-06T02:37:26.812Z,101566.09
2023-09-06T02:39:56.303Z,101562.28
2023-09-06T02:42:22.860Z,101561.47
2023-09-06T02:44:49.329Z,101567.34
2023-09-06T02:47:18.990Z,101567.34
2023-09-06T02:49:46.957Z,101570.97
2023-09-06T02:52:22.258Z,101567.16
2023-09-06T02:54:49.109Z,101573.28
2023-09-06T02:57:18.494Z,101574.31
2023-09-06T02:59:45.055Z,101562.28
2023-09-06T03:02:13.926Z,101555.13
2023-09-06T03:04:42.181Z,101571.16
2023-09-06T03:07:09.799Z,101565.25
2023-09-06T03:09:40.148Z,101573.91
2023-09-06T03:12:13.103Z,101577.69
2023-09-06T03:14:44.796Z,101579.53
2023-09-06T03:17:12.543Z,101568.31
2023-09-06T03:19:42.630Z,101576.34
2023-09-06T03:22:10.803Z,101577.59
2023-09-06T03:24:41.549Z,101581.41
2023-09-06T03:27:09.117Z,101581.78
2023-09-06T03:29:39.054Z,101581.81
2023-09-06T03:32:09.362Z,101580.75
2023-09-06T03:34:42.190Z,101586.03
2023-09-06T03:37:10.119Z,101578.84
2023-09-06T03:39:42.172Z,101582.00
2023-09-06T03:42:09.779Z,101589.56
2023-09-06T03:44:37.139Z,101581.78
2023-09-06T03:47:07.524Z,101581.59
2023-09-06T03:49:36.975Z,101585.16
2023-09-06T03:52:05.793Z,101591.25
2023-09-06T03:54:35.857Z,101592.16
2023-09-06T03:57:03.478Z,101591.25
2023-09-06T03:59:32.910Z,101583.06
2023-09-06T04:01:59.863Z,101588.09
2023-09-06T04:04:26.783Z,101584.47
2023-09-06T04:06:53.558Z,101588.66
2023-09-06T04:09:20.090Z,101586.97
2023-09-06T04:11:47.827Z,101589.31
2023-09-06T04:14:14.648Z,101586.13
2023-09-06T04:16:41.134Z,101588.00
2023-09-06T04:19:07.732Z,101594.34
2023-09-06T04:21:34.239Z,101596.22
2023-09-06T04:24:00.674Z,101600.00
2023-09-06T04:26:27.190Z,101600.69
2023-09-06T04:28:53.847Z,101598.97
2023-09-06T04:31:20.417Z,101610.94
2023-09-06T04:33:47.436Z,101608.22
2023-09-06T04:36:13.939Z,101607.44
2023-09-06T04:38:40.455Z,101607.97
2023-09-06T04:41:06.962Z,101611.91
2023-09-06T04:43:34.139Z,101613.69
2023-09-06T04:46:01.085Z,101602.50
2023-09-06T04:48:28.082Z,101609.19
2023-09-06T04:50:57.578Z,101608.66
2023-09-06T04:53:24.056Z,101609.44
2023-09-06T04:55:51.148Z,101615.81
2023-09-06T04:58:19.319Z,101611.09
2023-09-06T05:00:49.131Z,101608.19
2023-09-06T05:03:19.249Z,101611.81
2023-09-06T05:05:47.495Z,101620.13
2023-09-06T05:08:14.362Z,101625.03
2023-09-06T05:10:40.891Z,101615.25
2023-09-06T05:13:09.511Z,101613.06
2023-09-06T05:15:37.218Z,101620.53
2023-09-06T05:18:05.262Z,101607.94
2023-09-06T05:20:36.647Z,101619.75
2023-09-06T05:23:14.091Z,101621.22
2023-09-06T05:25:41.719Z,101626.41
2023-09-06T05:28:10.812Z,101624.38
2023-09-06T05:30:45.651Z,101623.94
2023-09-06T05:33:14.026Z,101636.75
2023-09-06T05:35:42.412Z,101631.78
2023-09-06T05:38:10.678Z,101632.16
2023-09-06T05:40:38.058Z,101636.78
2023-09-06T05:43:07.925Z,101630.06
2023-09-06T05:45:34.396Z,101640.66
2023-09-06T05:48:00.985Z,101645.06
2023-09-06T05:50:29.158Z,101650.34
2023-09-06T05:52:56.319Z,101647.59
2023-09-06T05:55:22.998Z,101655.19
2023-09-06T05:57:49.740Z,101657.25
2023-09-06T06:00:19.103Z,101647.25
2023-09-06T06:02:49.960Z,101654.94
2023-09-06T06:05:19.600Z,101659.75
2023-09-06T06:07:47.151Z,101661.69
2023-09-06T06:10:14.292Z,101659.81
2023-09-06T06:12:42.302Z,101668.91
2023-09-06T06:15:10.029Z,101663.78
2023-09-06T06:17:37.379Z,101662.38
2023-09-06T06:20:08.113Z,101669.53
2023-09-06T06:22:39.036Z,101668.25
2023-09-06T06:25:10.103Z,101664.50
2023-09-06T06:27:38.240Z,101662.84
2023-09-06T06:30:08.742Z,101667.31
2023-09-06T06:32:35.809Z,101678.69
2023-09-06T06:35:06.723Z,101672.97
2023-09-06T06:37:34.468Z,101685.41
2023-09-06T06:40:01.072Z,101675.94
2023-09-06T06:42:28.321Z,101679.13
2023-09-06T06:44:54.960Z,101684.16
2023-09-06T06:47:21.473Z,101681.00
2023-09-06T06:49:51.017Z,101680.00
2023-09-06T06:52:17.568Z,101681.91
2023-09-06T06:54:44.101Z,101683.81
2023-09-06T06:57:11.509Z,101680.66
2023-09-06T06:59:37.984Z,101682.19
2023-09-06T07:02:04.908Z,101690.25
2023-09-06T07:04:31.663Z,101687.03
2023-09-06T07:06:58.158Z,101688.75
2023-09-06T07:09:24.620Z,101690.88
2023-09-06T07:11:51.171Z,101689.41
2023-09-06T07:14:17.767Z,101687.97
2023-09-06T07:16:44.481Z,101682.38
2023-09-06T07:19:11.190Z,101690.59
2023-09-06T07:21:37.650Z,101688.94
2023-09-06T07:24:05.153Z,101683.94
2023-09-06T07:26:32.244Z,101682.69
2023-09-06T07:28:58.774Z,101691.34
2023-09-06T07:31:25.356Z,101692.59
2023-09-06T07:33:52.160Z,101686.41
2023-09-06T07:36:20.055Z,101689.75
2023-09-06T07:38:47.061Z,101680.47
2023-09-06T07:41:13.777Z,101681.66
2023-09-06T07:43:40.444Z,101683.41
2023-09-06T07:46:10.872Z,101670.09
2023-09-06T07:48:39.925Z,101678.66
2023-09-06T07:51:06.953Z,101676.47
2023-09-06T07:53:33.613Z,101674.19
2023-09-06T07:56:00.246Z,101674.06
2023-09-06T07:58:28.925Z,101678.06
2023-09-06T08:01:15.279Z,101677.53
2023-09-06T08:03:43.580Z,101687.34
2023-09-06T08:06:10.256Z,101685.91
2023-09-06T08:08:36.819Z,101677.66
2023-09-06T08:11:05.672Z,101686.19
2023-09-06T08:13:32.384Z,101699.97
2023-09-06T08:15:59.084Z,101692.84
2023-09-06T08:18:25.805Z,101692.94
2023-09-06T08:20:52.898Z,101682.69
2023-09-06T08:23:19.384Z,101688.44
2023-09-06T08:25:47.249Z,101695.75
2023-09-06T08:28:16.406Z,101693.22
2023-09-06T08:30:45.355Z,101696.50
2023-09-06T08:33:12.329Z,101696.47
2023-09-06T08:35:39.047Z,101697.78
2023-09-06T08:38:06.073Z,101698.78
2023-09-06T08:40:32.491Z,101701.94
2023-09-06T08:43:03.834Z,101700.13
2023-09-06T08:45:30.809Z,101699.00
2023-09-06T08:47:58.020Z,101700.47
2023-09-06T08:50:24.545Z,101711.50
2023-09-06T08:52:52.860Z,101709.09
2023-09-06T08:55:19.931Z,101700.44
2023-09-06T08:57:47.955Z,101707.72
2023-09-06T09:00:15.399Z,101706.59
2023-09-06T09:02:43.856Z,101709.41
2023-09-06T09:05:19.885Z,101707.19
2023-09-06T09:07:50.819Z,101707.97
2023-09-06T09:10:17.813Z,101709.97
2023-09-06T09:12:44.461Z,101701.13
2023-09-06T09:17:57.093Z,101709.28
2023-09-06T09:20:27.907Z,101707.47
2023-09-06T09:22:59.472Z,101702.63
2023-09-06T09:25:25.996Z,101707.44
2023-09-06T09:27:57.158Z,101694.31
2023-09-06T09:30:24.949Z,101706.34
2023-09-06T09:33:03.309Z,101694.50
2023-09-06T09:35:32.661Z,101694.72
2023-09-06T09:38:02.205Z,101691.56
2023-09-06T09:40:46.024Z,101698.59
2023-09-06T09:43:18.640Z,101694.50
2023-09-06T09:45:47.366Z,101692.41
2023-09-06T09:48:16.555Z,101695.97
2023-09-06T09:50:45.287Z,101690.69
2023-09-06T09:55:48.960Z,101689.13
2023-09-06T09:58:17.206Z,101688.09
2023-09-06T10:00:44.468Z,101686.19
2023-09-06T10:03:11.866Z,101680.34
2023-09-06T10:05:39.584Z,101683.75
2023-09-06T10:08:10.456Z,101676.81
2023-09-06T10:10:41.600Z,101674.06
2023-09-06T10:13:11.445Z,101682.19
2023-09-06T10:15:39.347Z,101679.41
2023-09-06T10:18:07.628Z,101674.69
2023-09-06T10:20:36.204Z,101678.91
2023-09-06T10:23:05.901Z,101674.66
2023-09-06T10:25:33.187Z,101675.13
2023-09-06T10:28:02.904Z,101674.97
2023-09-06T10:30:52.433Z,101677.66
2023-09-06T10:33:43.346Z,101673.22
2023-09-06T10:36:13.065Z,101674.38
2023-09-06T10:38:51.640Z,101674.81
2023-09-06T10:41:20.061Z,101665.25
2023-09-06T10:43:56.436Z,101673.31
2023-09-06T10:46:30.703Z,101673.19
2023-09-06T10:49:30.895Z,101666.22
2023-09-06T10:52:09.336Z,101666.53
2023-09-06T10:54:44.826Z,101660.00
2023-09-06T10:57:13.443Z,101662.03
2023-09-06T10:59:56.848Z,101661.50
2023-09-06T11:02:23.582Z,101651.16
2023-09-06T11:05:12.512Z,101653.75
2023-09-06T11:07:48.701Z,101653.75
2023-09-06T11:10:23.654Z,101653.19
2023-09-06T11:12:50.538Z,101648.97
2023-09-06T11:15:17.064Z,101646.25
2023-09-06T11:17:46.635Z,101645.47
2023-09-06T11:20:16.111Z,101657.78
2023-09-06T11:22:56.897Z,101646.88
2023-09-06T11:25:25.015Z,101654.38
2023-09-06T11:27:52.653Z,101649.50
2023-09-06T11:30:27.900Z,101650.50
2023-09-06T11:32:56.387Z,101643.97
2023-09-06T11:35:36.166Z,101644.34
2023-09-06T11:38:04.188Z,101651.72
2023-09-06T11:40:33.490Z,101642.44
2023-09-06T11:43:06.266Z,101639.03
2023-09-06T11:45:34.038Z,101642.53
2023-09-06T11:48:05.705Z,101644.44
2023-09-06T11:50:35.483Z,101636.47
2023-09-06T11:53:05.955Z,101637.91
2023-09-06T11:55:35.558Z,101637.59
2023-09-06T11:58:02.150Z,101635.63
2023-09-06T12:00:46.789Z,101629.94
2023-09-06T12:03:14.908Z,101632.06
2023-09-06T12:05:49.008Z,101630.44
2023-09-06T12:08:21.637Z,101640.00
2023-09-06T12:10:53.669Z,101631.22
2023-09-06T12:13:30.884Z,101632.41
2023-09-06T12:15:58.404Z,101628.41
2023-09-06T12:18:26.523Z,101626.63
2023-09-06T12:20:53.205Z,101620.84
2023-09-06T12:23:22.468Z,101621.44
2023-09-06T12:25:48.982Z,101618.28
2023-09-06T12:28:15.405Z,101623.63
2023-09-06T12:30:41.966Z,101621.09
2023-09-06T12:33:08.533Z,101620.94
2023-09-06T12:35:39.390Z,101617.97
2023-09-06T12:38:07.448Z,101614.59
2023-09-06T12:40:35.076Z,101615.09
2023-09-06T12:43:04.088Z,101610.47
2023-09-06T12:45:32.330Z,101611.94
2023-09-06T12:48:00.085Z,101609.59
2023-09-06T12:50:27.640Z,101611.34
2023-09-06T12:52:55.548Z,101606.53
2023-09-06T12:55:22.343Z,101599.69
2023-09-06T12:57:51.789Z,101595.59
2023-09-06T13:00:18.578Z,101591.19
2023-09-06T13:02:45.160Z,101588.28
2023-09-06T13:05:12.023Z,101589.13
2023-09-06T13:07:38.890Z,101588.47
2023-09-06T13:10:06.552Z,101587.34
2023-09-06T13:12:34.171Z,101583.66
2023-09-06T13:15:01.360Z,101581.88
2023-09-06T13:17:28.098Z,101575.06
2023-09-06T13:19:55.903Z,101580.31
2023-09-06T13:22:22.559Z,101591.09
2023-09-06T13:24:50.094Z,101582.88
2023-09-06T13:27:16.685Z,101593.50
2023-09-06T13:29:43.164Z,101590.69
2023-09-06T13:32:10.090Z,101584.06
2023-09-06T13:34:40.001Z,101577.97
2023-09-06T13:37:06.691Z,101583.00
2023-09-06T13:39:33.510Z,101585.00
2023-09-06T13:42:01.982Z,101577.75
2023-09-06T13:44:32.414Z,101574.81
2023-09-06T13:46:59.484Z,101582.94
2023-09-06T13:49:26.584Z,101575.09
2023-09-06T13:51:53.059Z,101583.28
2023-09-06T13:54:19.594Z,101587.22
2023-09-06T13:56:50.859Z,101584.41
2023-09-06T13:59:18.383Z,101582.47
2023-09-06T14:01:45.612Z,101590.84
2023-09-06T14:04:12.516Z,101583.59
2023-09-06T14:06:39.650Z,101564.06
2023-09-06T14:09:08.763Z,101576.03
2023-09-06T14:11:36.081Z,101567.94
2023-09-06T14:14:02.640Z,101570.13
2023-09-06T14:16:29.164Z,101564.00
2023-09-06T14:18:55.992Z,101564.81
2023-09-06T14:21:22.517Z,101575.63
2023-09-06T14:23:50.236Z,101570.06
2023-09-06T14:26:17.001Z,101577.03
2023-09-06T14:28:43.616Z,101574.31
2023-09-06T14:31:11.805Z,101574.31
2023-09-06T14:33:39.573Z,101579.00
2023-09-06T14:36:06.740Z,101578.72
2023-09-06T14:38:34.272Z,101578.66
2023-09-06T14:41:01.030Z,101574.50
2023-09-06T14:43:28.670Z,101568.91
2023-09-06T14:46:05.634Z,101568.63
2023-09-06T14:48:32.840Z,101563.28
2023-09-06T14:51:04.672Z,101563.19
2023-09-06T14:53:31.432Z,101560.34
2023-09-06T14:56:01.520Z,101550.34
2023-09-06T14:58:28.801Z,101545.81
2023-09-06T15:00:56.105Z,101551.91
2023-09-06T15:03:24.385Z,101547.38
2023-09-06T15:05:51.461Z,101557.88
2023-09-06T15:08:18.632Z,101553.44
2023-09-06T15:10:45.789Z,101556.16
2023-09-06T15:13:15.829Z,101557.47
2023-09-06T15:15:44.311Z,101556.63
2023-09-06T15:18:11.290Z,101554.69
2023-09-06T15:20:38.382Z,101559.59
2023-09-06T15:23:05.905Z,101558.16
2023-09-06T15:25:34.276Z,101556.94
2023-09-06T15:28:00.821Z,101562.94
2023-09-06T15:30:27.589Z,101563.19
2023-09-06T15:32:54.190Z,101561.44
2023-09-06T15:35:28.805Z,101567.81
2023-09-06T15:38:00.488Z,101566.34
2023-09-06T15:40:27.096Z,101566.38
2023-09-06T15:42:53.695Z,101564.66
2023-09-06T15:45:20.192Z,101566.25
2023-09-06T15:47:49.114Z,101557.97
2023-09-06T15:50:19.640Z,101559.31
2023-09-06T15:52:48.334Z,101558.94
2023-09-06T15:55:14.898Z,101562.81
2023-09-06T15:57:42.835Z,101563.00
2023-09-06T16:00:24.376Z,101554.97
2023-09-06T16:02:57.623Z,101550.47
2023-09-06T16:05:24.529Z,101546.53
2023-09-06T16:07:51.017Z,101547.59
2023-09-06T16:10:17.607Z,101548.09
2023-09-06T16:12:47.469Z,101542.84
2023-09-06T16:15:16.918Z,101545.91
2023-09-06T16:17:43.845Z,101543.31
2023-09-06T16:20:12.294Z,101551.97
2023-09-06T16:22:39.316Z,101545.72
2023-09-06T16:25:08.853Z,101550.81
2023-09-06T16:27:35.768Z,101539.59
2023-09-06T16:30:05.646Z,101540.69
2023-09-06T16:32:33.178Z,101546.97
2023-09-06T16:35:00.162Z,101538.59
2023-09-06T16:37:27.617Z,101541.94
2023-09-06T16:39:54.277Z,101538.25
2023-09-06T16:42:22.559Z,101537.41
2023-09-06T16:44:48.970Z,101538.41
2023-09-06T16:47:15.504Z,101541.09
2023-09-06T16:49:43.830Z,101537.91
2023-09-06T16:52:10.604Z,101535.41
2023-09-06T16:54:37.477Z,101534.63
2023-09-06T16:57:05.244Z,101537.50
2023-09-06T16:59:32.642Z,101537.13
2023-09-06T17:01:59.558Z,101541.31
2023-09-06T17:04:26.452Z,101543.75
2023-09-06T17:06:52.977Z,101542.63
2023-09-06T17:09:19.431Z,101540.09
2023-09-06T17:11:45.899Z,101538.53
2023-09-06T17:14:12.716Z,101543.91
2023-09-06T17:16:40.334Z,101551.53
2023-09-06T17:19:10.034Z,101544.25
2023-09-06T17:21:39.946Z,101547.06
2023-09-06T17:24:08.598Z,101540.38
2023-09-06T17:26:37.618Z,101542.03
2023-09-06T17:29:07.725Z,101543.09
2023-09-06T17:31:37.812Z,101549.00
2023-09-06T17:34:04.586Z,101548.69
2023-09-06T17:36:31.032Z,101550.72
2023-09-06T17:38:57.560Z,101549.41
2023-09-06T17:41:24.715Z,101552.72
2023-09-06T17:43:51.939Z,101559.56
2023-09-06T17:46:25.236Z,101552.72
2023-09-06T17:48:54.039Z,101559.03
2023-09-06T17:51:21.036Z,101551.22
2023-09-06T17:53:48.918Z,101556.97
2023-09-06T17:56:17.688Z,101557.13
2023-09-06T17:58:46.507Z,101551.59
2023-09-06T18:01:17.245Z,101548.34
2023-09-06T18:06:25.590Z,101550.72
2023-09-06T18:08:58.336Z,101551.06
2023-09-06T18:11:25.854Z,101550.97
2023-09-06T18:13:52.893Z,101555.03
2023-09-06T18:16:20.278Z,101550.16
2023-09-06T18:18:47.374Z,101547.75
2023-09-06T18:21:15.017Z,101552.06
2023-09-06T18:23:44.126Z,101547.13
2023-09-06T18:26:11.675Z,101554.94
2023-09-06T18:28:38.663Z,101554.50
2023-09-06T18:31:05.523Z,101560.34
2023-09-06T18:33:32.140Z,101555.78
2023-09-06T18:35:58.808Z,101561.31
2023-09-06T18:38:27.795Z,101561.94
2023-09-06T18:40:57.050Z,101562.41
2023-09-06T18:43:24.208Z,101565.53
2023-09-06T18:45:51.725Z,101570.69
2023-09-06T18:48:20.677Z,101573.31
2023-09-06T18:50:48.568Z,101572.81
2023-09-06T18:53:15.234Z,101577.00
2023-09-06T18:55:44.813Z,101580.88
2023-09-06T18:58:12.745Z,101584.09
2023-09-06T19:00:40.657Z,101585.75
2023-09-06T19:03:12.783Z,101592.25
2023-09-06T19:05:43.401Z,101589.13
2023-09-06T19:08:13.090Z,101585.16
2023-09-06T19:10:41.480Z,101588.59
2023-09-06T19:13:09.288Z,101582.03
2023-09-06T19:15:37.111Z,101589.19
2023-09-06T19:18:04.204Z,101593.16
2023-09-06T19:20:30.820Z,101594.00
2023-09-06T19:22:57.505Z,101610.44
2023-09-06T19:25:28.544Z,101601.81
2023-09-06T19:27:55.374Z,101601.81
2023-09-06T19:30:22.046Z,101599.25
2023-09-06T19:32:48.684Z,101604.03
2023-09-06T19:35:15.425Z,101603.31
2023-09-06T19:37:42.141Z,101603.31
2023-09-06T19:40:09.626Z,101610.59
2023-09-06T19:42:36.353Z,101611.03
2023-09-06T19:45:03.126Z,101615.03
2023-09-06T19:47:29.827Z,101607.13
2023-09-06T19:49:57.195Z,101605.75
2023-09-06T19:52:24.003Z,101611.09
2023-09-06T19:54:50.610Z,101606.22
2023-09-06T19:57:17.180Z,101602.25
2023-09-06T19:59:43.983Z,101601.03
2023-09-06T20:02:10.600Z,101608.16
2023-09-06T20:04:37.367Z,101608.31
2023-09-06T20:07:05.370Z,101605.94
2023-09-06T20:09:32.140Z,101605.09
2023-09-06T20:11:59.128Z,101609.53
2023-09-06T20:14:28.866Z,101613.53
2023-09-06T20:16:58.321Z,101617.06
2023-09-06T20:19:24.983Z,101610.84
2023-09-06T20:21:51.717Z,101607.63
2023-09-06T20:24:18.254Z,101611.69
2023-09-06T20:26:45.196Z,101603.13
2023-09-06T20:29:11.785Z,101611.59
2023-09-06T20:31:38.767Z,101610.75
2023-09-06T20:34:05.427Z,101612.25
2023-09-06T20:36:33.456Z,101616.59
2023-09-06T20:39:00.123Z,101614.91
2023-09-06T20:41:26.736Z,101614.25
2023-09-06T20:43:53.219Z,101623.34
2023-09-06T20:46:19.771Z,101614.25
2023-09-06T20:48:47.343Z,101623.34
2023-09-06T20:51:17.254Z,101621.03
2023-09-06T20:53:44.666Z,101618.13
2023-09-06T20:56:12.095Z,101613.50
2023-09-06T20:58:39.113Z,101614.28
2023-09-06T21:01:16.694Z,101617.81
2023-09-06T21:03:44.436Z,101617.16
2023-09-06T21:06:11.868Z,101615.09
2023-09-06T21:08:38.493Z,101617.28
2023-09-06T21:11:05.210Z,101622.19
2023-09-06T21:13:33.537Z,101633.69
2023-09-06T21:16:02.622Z,101633.94
2023-09-06T21:18:30.467Z,101628.03
2023-09-06T21:20:57.909Z,101640.72
2023-09-06T21:23:24.498Z,101632.25
2023-09-06T21:25:51.425Z,101637.13
2023-09-06T21:28:18.032Z,101638.53
2023-09-06T21:30:47.022Z,101630.16
2023-09-06T21:33:14.525Z,101639.53
2023-09-06T21:35:45.254Z,101637.94
2023-09-06T21:38:13.107Z,101639.53
2023-09-06T21:40:44.197Z,101639.47
2023-09-06T21:43:17.897Z,101644.03
2023-09-06T21:45:45.810Z,101642.28
2023-09-06T21:48:12.642Z,101640.81
2023-09-06T21:50:41.389Z,101642.69
2023-09-06T21:53:08.254Z,101641.31
2023-09-06T21:55:34.849Z,101649.84
2023-09-06T21:58:09.484Z,101644.97
2023-09-06T22:00:36.767Z,101646.91
2023-09-06T22:03:03.514Z,101650.97
2023-09-06T22:05:30.089Z,101650.72
2023-09-06T22:07:56.907Z,101645.69
2023-09-06T22:10:23.406Z,101658.59
2023-09-06T22:12:50.016Z,101658.38
2023-09-06T22:15:16.638Z,101658.38
2023-09-06T22:17:43.403Z,101647.41
2023-09-06T22:20:10.546Z,101654.56
2023-09-06T22:22:37.196Z,101659.69
2023-09-06T22:25:05.812Z,101650.78
2023-09-06T22:27:32.489Z,101655.47
2023-09-06T22:29:59.028Z,101654.00
2023-09-06T22:32:25.538Z,101656.50
2023-09-06T22:34:51.989Z,101657.38
2023-09-06T22:37:18.607Z,101656.53
2023-09-06T22:39:45.156Z,101653.78
2023-09-06T22:42:12.307Z,101647.84
2023-09-06T22:44:38.975Z,101646.13
2023-09-06T22:47:05.601Z,101647.00
2023-09-06T22:49:32.190Z,101646.63
2023-09-06T22:51:58.755Z,101653.19
2023-09-06T22:54:25.432Z,101646.19
2023-09-06T22:56:51.995Z,101653.16
2023-09-06T22:59:18.792Z,101646.63
2023-09-06T23:01:45.607Z,101652.34
2023-09-06T23:04:12.449Z,101643.69
2023-09-06T23:06:39.159Z,101653.16
2023-09-06T23:09:08.301Z,101647.44
2023-09-06T23:11:35.594Z,101648.53
2023-09-06T23:14:06.378Z,101652.75
2023-09-06T23:16:36.897Z,101654.66
2023-09-06T23:19:04.276Z,101650.25
2023-09-06T23:21:39.077Z,101646.44
2023-09-06T23:24:12.915Z,101643.09
2023-09-06T23:26:40.411Z,101643.50
2023-09-06T23:29:08.447Z,101647.34
2023-09-06T23:31:40.242Z,101645.00
2023-09-06T23:34:15.646Z,101645.63
2023-09-06T23:36:42.609Z,101643.75
2023-09-06T23:39:12.853Z,101643.13
2023-09-06T23:41:42.682Z,101644.84
2023-09-06T23:44:09.766Z,101634.72
2023-09-06T23:49:08.283Z,101626.47
2023-09-06T23:51:34.896Z,101632.59
2023-09-06T23:54:01.399Z,101638.56
2023-09-06T23:56:27.855Z,101638.56
2023-09-06T23:58:54.465Z,101643.84
